sensor_id;sensor_type;location;lat;lon;timestamp;P1;durP1;ratioP1;P2;durP2;ratioP2
16480;SDS011;44634;54.110;12.138;2023-04-16T00:00:42;24.70;;;14.17;;
16480;SDS011;44634;54.110;12.138;2023-04-16T00:03:11;25.37;;;15.03;;
16480;SDS011;44634;54.110;12.138;2023-04-16T00:05:41;27.50;;;14.90;;
16480;SDS011;44634;54.110;12.138;2023-04-16T00:08:08;22.10;;;14.37;;
16480;SDS011;44634;54.110;12.138;2023-04-16T00:10:36;27.40;;;15.47;;
16480;SDS011;44634;54.110;12.138;2023-04-16T00:13:04;22.80;;;14.40;;
16480;SDS011;44634;54.110;12.138;2023-04-16T00:15:32;23.47;;;15.10;;
16480;SDS011;44634;54.110;12.138;2023-04-16T00:17:59;26.13;;;15.43;;
16480;SDS011;44634;54.110;12.138;2023-04-16T00:20:27;29.77;;;15.67;;
16480;SDS011;44634;54.110;12.138;2023-04-16T00:22:57;26.50;;;15.47;;
16480;SDS011;44634;54.110;12.138;2023-04-16T00:25:25;26.90;;;15.27;;
16480;SDS011;44634;54.110;12.138;2023-04-16T00:27:52;27.67;;;16.03;;
16480;SDS011;44634;54.110;12.138;2023-04-16T00:30:20;28.43;;;15.67;;
16480;SDS011;44634;54.110;12.138;2023-04-16T00:32:48;22.60;;;14.53;;
16480;SDS011;44634;54.110;12.138;2023-04-16T00:35:16;27.13;;;14.10;;
16480;SDS011;44634;54.110;12.138;2023-04-16T00:37:44;25.93;;;15.77;;
16480;SDS011;44634;54.110;12.138;2023-04-16T00:40:14;25.10;;;14.17;;
16480;SDS011;44634;54.110;12.138;2023-04-16T00:42:41;28.93;;;15.97;;
16480;SDS011;44634;54.110;12.138;2023-04-16T00:45:10;27.43;;;14.97;;
16480;SDS011;44634;54.110;12.138;2023-04-16T00:47:38;26.63;;;15.10;;
16480;SDS011;44634;54.110;12.138;2023-04-16T00:50:06;24.80;;;14.43;;
16480;SDS011;44634;54.110;12.138;2023-04-16T00:52:34;24.63;;;15.73;;
16480;SDS011;44634;54.110;12.138;2023-04-16T00:55:02;26.57;;;14.77;;
16480;SDS011;44634;54.110;12.138;2023-04-16T00:57:32;25.23;;;13.73;;
16480;SDS011;44634;54.110;12.138;2023-04-16T01:00:00;28.23;;;14.70;;
16480;SDS011;44634;54.110;12.138;2023-04-16T01:02:28;27.93;;;15.73;;
16480;SDS011;44634;54.110;12.138;2023-04-16T01:04:56;26.67;;;14.17;;
16480;SDS011;44634;54.110;12.138;2023-04-16T01:07:24;25.40;;;14.97;;
16480;SDS011;44634;54.110;12.138;2023-04-16T01:09:52;25.27;;;14.87;;
16480;SDS011;44634;54.110;12.138;2023-04-16T01:12:19;27.50;;;15.80;;
16480;SDS011;44634;54.110;12.138;2023-04-16T01:14:48;26.30;;;15.50;;
16480;SDS011;44634;54.110;12.138;2023-04-16T01:17:16;23.43;;;15.17;;
16480;SDS011;44634;54.110;12.138;2023-04-16T01:19:44;28.97;;;14.17;;
16480;SDS011;44634;54.110;12.138;2023-04-16T01:22:13;26.07;;;15.67;;
16480;SDS011;44634;54.110;12.138;2023-04-16T01:24:41;23.43;;;13.37;;
16480;SDS011;44634;54.110;12.138;2023-04-16T01:27:09;28.53;;;15.20;;
16480;SDS011;44634;54.110;12.138;2023-04-16T01:29:37;29.73;;;16.77;;
16480;SDS011;44634;54.110;12.138;2023-04-16T01:32:05;22.63;;;14.53;;
16480;SDS011;44634;54.110;12.138;2023-04-16T01:34:33;24.77;;;14.10;;
16480;SDS011;44634;54.110;12.138;2023-04-16T01:37:02;25.97;;;14.77;;
16480;SDS011;44634;54.110;12.138;2023-04-16T01:39:31;22.97;;;13.70;;
16480;SDS011;44634;54.110;12.138;2023-04-16T01:41:59;26.00;;;15.60;;
16480;SDS011;44634;54.110;12.138;2023-04-16T01:44:27;25.27;;;15.13;;
16480;SDS011;44634;54.110;12.138;2023-04-16T01:46:56;30.70;;;16.27;;
16480;SDS011;44634;54.110;12.138;2023-04-16T01:49:24;26.20;;;15.40;;
16480;SDS011;44634;54.110;12.138;2023-04-16T01:51:51;24.50;;;15.80;;
16480;SDS011;44634;54.110;12.138;2023-04-16T01:54:19;23.90;;;14.77;;
16480;SDS011;44634;54.110;12.138;2023-04-16T01:56:48;29.20;;;15.73;;
16480;SDS011;44634;54.110;12.138;2023-04-16T01:59:16;30.87;;;15.77;;
16480;SDS011;44634;54.110;12.138;2023-04-16T02:01:44;25.23;;;15.77;;
16480;SDS011;44634;54.110;12.138;2023-04-16T02:04:12;26.73;;;15.37;;
16480;SDS011;44634;54.110;12.138;2023-04-16T02:06:40;25.50;;;15.87;;
16480;SDS011;44634;54.110;12.138;2023-04-16T02:09:07;34.30;;;17.10;;
16480;SDS011;44634;54.110;12.138;2023-04-16T02:11:36;28.53;;;16.30;;
16480;SDS011;44634;54.110;12.138;2023-04-16T02:14:05;28.13;;;15.97;;
16480;SDS011;44634;54.110;12.138;2023-04-16T02:16:33;25.40;;;15.47;;
16480;SDS011;44634;54.110;12.138;2023-04-16T02:19:01;35.57;;;17.00;;
16480;SDS011;44634;54.110;12.138;2023-04-16T02:21:29;31.30;;;16.90;;
16480;SDS011;44634;54.110;12.138;2023-04-16T02:23:57;28.40;;;17.47;;
16480;SDS011;44634;54.110;12.138;2023-04-16T02:26:25;32.07;;;17.90;;
16480;SDS011;44634;54.110;12.138;2023-04-16T02:28:54;31.93;;;16.87;;
16480;SDS011;44634;54.110;12.138;2023-04-16T02:31:23;27.90;;;17.17;;
16480;SDS011;44634;54.110;12.138;2023-04-16T02:33:51;31.23;;;17.37;;
16480;SDS011;44634;54.110;12.138;2023-04-16T02:36:19;27.53;;;17.03;;
16480;SDS011;44634;54.110;12.138;2023-04-16T02:38:47;29.60;;;16.67;;
16480;SDS011;44634;54.110;12.138;2023-04-16T02:41:14;29.37;;;16.67;;
16480;SDS011;44634;54.110;12.138;2023-04-16T02:43:42;30.30;;;17.03;;
16480;SDS011;44634;54.110;12.138;2023-04-16T02:46:10;33.67;;;18.67;;
16480;SDS011;44634;54.110;12.138;2023-04-16T02:48:39;31.37;;;16.03;;
16480;SDS011;44634;54.110;12.138;2023-04-16T02:51:07;26.80;;;16.17;;
16480;SDS011;44634;54.110;12.138;2023-04-16T02:53:35;30.07;;;16.90;;
16480;SDS011;44634;54.110;12.138;2023-04-16T02:56:02;33.60;;;18.30;;
16480;SDS011;44634;54.110;12.138;2023-04-16T02:58:31;31.70;;;17.50;;
16480;SDS011;44634;54.110;12.138;2023-04-16T03:00:58;29.33;;;17.07;;
16480;SDS011;44634;54.110;12.138;2023-04-16T03:03:26;31.50;;;17.57;;
16480;SDS011;44634;54.110;12.138;2023-04-16T03:05:55;30.47;;;17.73;;
16480;SDS011;44634;54.110;12.138;2023-04-16T03:08:23;33.10;;;18.70;;
16480;SDS011;44634;54.110;12.138;2023-04-16T03:10:51;31.27;;;18.27;;
16480;SDS011;44634;54.110;12.138;2023-04-16T03:13:19;33.93;;;18.87;;
16480;SDS011;44634;54.110;12.138;2023-04-16T03:15:47;33.77;;;19.00;;
16480;SDS011;44634;54.110;12.138;2023-04-16T03:18:15;30.53;;;18.03;;
16480;SDS011;44634;54.110;12.138;2023-04-16T03:20:43;34.23;;;18.77;;
16480;SDS011;44634;54.110;12.138;2023-04-16T03:23:12;30.80;;;16.33;;
16480;SDS011;44634;54.110;12.138;2023-04-16T03:25:40;33.53;;;17.80;;
16480;SDS011;44634;54.110;12.138;2023-04-16T03:28:11;34.47;;;17.93;;
16480;SDS011;44634;54.110;12.138;2023-04-16T03:30:39;32.13;;;18.00;;
16480;SDS011;44634;54.110;12.138;2023-04-16T03:33:07;32.30;;;18.53;;
16480;SDS011;44634;54.110;12.138;2023-04-16T03:35:35;31.80;;;16.90;;
16480;SDS011;44634;54.110;12.138;2023-04-16T03:38:02;35.73;;;17.63;;
16480;SDS011;44634;54.110;12.138;2023-04-16T03:40:31;32.43;;;17.60;;
16480;SDS011;44634;54.110;12.138;2023-04-16T03:42:59;29.67;;;16.40;;
16480;SDS011;44634;54.110;12.138;2023-04-16T03:45:27;28.67;;;16.50;;
16480;SDS011;44634;54.110;12.138;2023-04-16T03:47:55;34.43;;;18.23;;
16480;SDS011;44634;54.110;12.138;2023-04-16T03:50:23;31.73;;;17.83;;
16480;SDS011;44634;54.110;12.138;2023-04-16T03:52:50;27.60;;;16.13;;
16480;SDS011;44634;54.110;12.138;2023-04-16T03:55:18;28.33;;;17.10;;
16480;SDS011;44634;54.110;12.138;2023-04-16T03:57:47;29.17;;;17.07;;
16480;SDS011;44634;54.110;12.138;2023-04-16T04:00:15;29.77;;;16.50;;
16480;SDS011;44634;54.110;12.138;2023-04-16T04:02:43;29.10;;;17.53;;
16480;SDS011;44634;54.110;12.138;2023-04-16T04:05:11;31.57;;;17.27;;
16480;SDS011;44634;54.110;12.138;2023-04-16T04:07:39;28.37;;;16.97;;
16480;SDS011;44634;54.110;12.138;2023-04-16T04:10:07;34.57;;;18.23;;
16480;SDS011;44634;54.110;12.138;2023-04-16T04:12:35;30.67;;;17.30;;
16480;SDS011;44634;54.110;12.138;2023-04-16T04:15:05;28.40;;;16.23;;
16480;SDS011;44634;54.110;12.138;2023-04-16T04:17:34;33.00;;;18.00;;
16480;SDS011;44634;54.110;12.138;2023-04-16T04:20:01;29.90;;;17.33;;
16480;SDS011;44634;54.110;12.138;2023-04-16T04:22:30;26.00;;;16.27;;
16480;SDS011;44634;54.110;12.138;2023-04-16T04:24:57;28.20;;;17.40;;
16480;SDS011;44634;54.110;12.138;2023-04-16T04:27:25;27.73;;;17.50;;
16480;SDS011;44634;54.110;12.138;2023-04-16T04:29:53;30.57;;;17.10;;
16480;SDS011;44634;54.110;12.138;2023-04-16T04:32:22;34.50;;;17.43;;
16480;SDS011;44634;54.110;12.138;2023-04-16T04:34:50;32.83;;;17.63;;
16480;SDS011;44634;54.110;12.138;2023-04-16T04:37:18;33.80;;;17.40;;
16480;SDS011;44634;54.110;12.138;2023-04-16T04:39:45;28.97;;;17.23;;
16480;SDS011;44634;54.110;12.138;2023-04-16T04:42:13;29.77;;;16.97;;
16480;SDS011;44634;54.110;12.138;2023-04-16T04:44:43;34.60;;;18.27;;
16480;SDS011;44634;54.110;12.138;2023-04-16T04:47:11;29.43;;;16.80;;
16480;SDS011;44634;54.110;12.138;2023-04-16T04:49:40;29.97;;;17.37;;
16480;SDS011;44634;54.110;12.138;2023-04-16T04:52:08;30.77;;;17.13;;
16480;SDS011;44634;54.110;12.138;2023-04-16T04:54:36;26.37;;;16.67;;
16480;SDS011;44634;54.110;12.138;2023-04-16T04:57:06;33.20;;;18.03;;
16480;SDS011;44634;54.110;12.138;2023-04-16T04:59:34;30.90;;;17.07;;
16480;SDS011;44634;54.110;12.138;2023-04-16T05:02:02;34.27;;;17.83;;
16480;SDS011;44634;54.110;12.138;2023-04-16T05:04:30;30.13;;;17.13;;
16480;SDS011;44634;54.110;12.138;2023-04-16T05:06:59;27.97;;;16.80;;
16480;SDS011;44634;54.110;12.138;2023-04-16T05:09:27;27.93;;;16.27;;
16480;SDS011;44634;54.110;12.138;2023-04-16T05:11:56;33.50;;;17.67;;
16480;SDS011;44634;54.110;12.138;2023-04-16T05:14:23;29.17;;;17.70;;
16480;SDS011;44634;54.110;12.138;2023-04-16T05:16:51;31.40;;;17.67;;
16480;SDS011;44634;54.110;12.138;2023-04-16T05:19:19;35.67;;;18.50;;
16480;SDS011;44634;54.110;12.138;2023-04-16T05:21:47;33.00;;;18.43;;
16480;SDS011;44634;54.110;12.138;2023-04-16T05:24:16;33.27;;;17.43;;
16480;SDS011;44634;54.110;12.138;2023-04-16T05:26:44;34.33;;;18.57;;
16480;SDS011;44634;54.110;12.138;2023-04-16T05:29:12;36.10;;;18.83;;
16480;SDS011;44634;54.110;12.138;2023-04-16T05:31:40;30.33;;;18.03;;
16480;SDS011;44634;54.110;12.138;2023-04-16T05:34:07;30.27;;;17.33;;
16480;SDS011;44634;54.110;12.138;2023-04-16T05:36:35;32.23;;;18.90;;
16480;SDS011;44634;54.110;12.138;2023-04-16T05:39:03;30.10;;;17.23;;
16480;SDS011;44634;54.110;12.138;2023-04-16T05:41:32;28.13;;;17.93;;
16480;SDS011;44634;54.110;12.138;2023-04-16T05:44:00;30.43;;;18.00;;
16480;SDS011;44634;54.110;12.138;2023-04-16T05:46:28;31.80;;;18.60;;
16480;SDS011;44634;54.110;12.138;2023-04-16T05:48:56;33.60;;;18.97;;
16480;SDS011;44634;54.110;12.138;2023-04-16T05:51:24;31.77;;;18.03;;
16480;SDS011;44634;54.110;12.138;2023-04-16T05:53:52;31.97;;;17.97;;
16480;SDS011;44634;54.110;12.138;2023-04-16T05:56:20;34.67;;;18.43;;
16480;SDS011;44634;54.110;12.138;2023-04-16T05:58:50;31.07;;;18.57;;
16480;SDS011;44634;54.110;12.138;2023-04-16T06:01:17;29.57;;;17.63;;
16480;SDS011;44634;54.110;12.138;2023-04-16T06:03:45;30.87;;;18.00;;
16480;SDS011;44634;54.110;12.138;2023-04-16T06:06:13;28.83;;;17.07;;
16480;SDS011;44634;54.110;12.138;2023-04-16T06:08:41;29.73;;;17.47;;
16480;SDS011;44634;54.110;12.138;2023-04-16T06:11:09;30.67;;;16.87;;
16480;SDS011;44634;54.110;12.138;2023-04-16T06:13:37;28.60;;;16.47;;
16480;SDS011;44634;54.110;12.138;2023-04-16T06:16:07;28.33;;;16.40;;
16480;SDS011;44634;54.110;12.138;2023-04-16T06:18:35;29.13;;;17.17;;
16480;SDS011;44634;54.110;12.138;2023-04-16T06:21:03;27.00;;;16.90;;
16480;SDS011;44634;54.110;12.138;2023-04-16T06:23:30;28.67;;;16.60;;
16480;SDS011;44634;54.110;12.138;2023-04-16T06:25:58;31.97;;;17.87;;
16480;SDS011;44634;54.110;12.138;2023-04-16T06:28:26;24.07;;;14.77;;
16480;SDS011;44634;54.110;12.138;2023-04-16T06:30:54;30.17;;;15.33;;
16480;SDS011;44634;54.110;12.138;2023-04-16T06:33:23;26.83;;;15.30;;
16480;SDS011;44634;54.110;12.138;2023-04-16T06:35:51;24.83;;;14.67;;
16480;SDS011;44634;54.110;12.138;2023-04-16T06:38:18;27.33;;;15.67;;
16480;SDS011;44634;54.110;12.138;2023-04-16T06:40:47;25.23;;;14.37;;
16480;SDS011;44634;54.110;12.138;2023-04-16T06:43:15;22.20;;;14.13;;
16480;SDS011;44634;54.110;12.138;2023-04-16T06:45:43;22.63;;;14.10;;
16480;SDS011;44634;54.110;12.138;2023-04-16T06:48:10;23.97;;;15.30;;
16480;SDS011;44634;54.110;12.138;2023-04-16T06:50:40;19.47;;;13.47;;
16480;SDS011;44634;54.110;12.138;2023-04-16T06:53:07;20.27;;;13.63;;
16480;SDS011;44634;54.110;12.138;2023-04-16T06:55:36;21.97;;;13.60;;
16480;SDS011;44634;54.110;12.138;2023-04-16T06:58:04;22.87;;;13.77;;
16480;SDS011;44634;54.110;12.138;2023-04-16T07:00:32;20.53;;;13.67;;
16480;SDS011;44634;54.110;12.138;2023-04-16T07:02:59;23.40;;;13.40;;
16480;SDS011;44634;54.110;12.138;2023-04-16T07:05:28;25.30;;;13.33;;
16480;SDS011;44634;54.110;12.138;2023-04-16T07:07:58;21.43;;;12.80;;
16480;SDS011;44634;54.110;12.138;2023-04-16T07:10:26;24.10;;;13.27;;
16480;SDS011;44634;54.110;12.138;2023-04-16T07:12:54;22.47;;;13.40;;
16480;SDS011;44634;54.110;12.138;2023-04-16T07:15:21;21.10;;;12.83;;
16480;SDS011;44634;54.110;12.138;2023-04-16T07:17:49;16.87;;;12.23;;
16480;SDS011;44634;54.110;12.138;2023-04-16T07:20:17;21.73;;;11.90;;
16480;SDS011;44634;54.110;12.138;2023-04-16T07:22:45;21.40;;;13.00;;
16480;SDS011;44634;54.110;12.138;2023-04-16T07:25:14;16.60;;;11.83;;
16480;SDS011;44634;54.110;12.138;2023-04-16T07:27:41;19.33;;;11.60;;
16480;SDS011;44634;54.110;12.138;2023-04-16T07:30:09;22.37;;;12.70;;
16480;SDS011;44634;54.110;12.138;2023-04-16T07:32:38;22.83;;;12.87;;
16480;SDS011;44634;54.110;12.138;2023-04-16T07:35:06;17.23;;;11.50;;
16480;SDS011;44634;54.110;12.138;2023-04-16T07:37:34;19.27;;;11.53;;
16480;SDS011;44634;54.110;12.138;2023-04-16T07:40:02;21.00;;;10.87;;
16480;SDS011;44634;54.110;12.138;2023-04-16T07:42:31;19.63;;;12.13;;
16480;SDS011;44634;54.110;12.138;2023-04-16T07:44:59;17.17;;;12.30;;
16480;SDS011;44634;54.110;12.138;2023-04-16T07:47:27;19.67;;;11.73;;
16480;SDS011;44634;54.110;12.138;2023-04-16T07:49:55;19.87;;;13.03;;
16480;SDS011;44634;54.110;12.138;2023-04-16T07:52:22;38.23;;;20.77;;
16480;SDS011;44634;54.110;12.138;2023-04-16T07:54:50;22.27;;;11.87;;
16480;SDS011;44634;54.110;12.138;2023-04-16T07:57:18;16.23;;;11.70;;
16480;SDS011;44634;54.110;12.138;2023-04-16T07:59:47;16.33;;;10.97;;
16480;SDS011;44634;54.110;12.138;2023-04-16T08:02:15;18.17;;;11.20;;
16480;SDS011;44634;54.110;12.138;2023-04-16T08:04:44;20.23;;;11.60;;
16480;SDS011;44634;54.110;12.138;2023-04-16T08:07:12;15.87;;;11.00;;
16480;SDS011;44634;54.110;12.138;2023-04-16T08:09:46;22.60;;;11.07;;
16480;SDS011;44634;54.110;12.138;2023-04-16T08:12:14;14.47;;;11.13;;
16480;SDS011;44634;54.110;12.138;2023-04-16T08:14:42;17.00;;;10.83;;
16480;SDS011;44634;54.110;12.138;2023-04-16T08:17:12;16.60;;;10.53;;
16480;SDS011;44634;54.110;12.138;2023-04-16T08:19:41;18.20;;;11.37;;
16480;SDS011;44634;54.110;12.138;2023-04-16T08:22:10;17.60;;;10.97;;
16480;SDS011;44634;54.110;12.138;2023-04-16T08:24:38;17.17;;;10.77;;
16480;SDS011;44634;54.110;12.138;2023-04-16T08:27:06;19.43;;;10.27;;
16480;SDS011;44634;54.110;12.138;2023-04-16T08:29:44;18.10;;;10.43;;
16480;SDS011;44634;54.110;12.138;2023-04-16T08:32:13;17.00;;;10.30;;
16480;SDS011;44634;54.110;12.138;2023-04-16T08:34:41;17.43;;;9.97;;
16480;SDS011;44634;54.110;12.138;2023-04-16T08:37:09;17.07;;;10.43;;
16480;SDS011;44634;54.110;12.138;2023-04-16T08:39:37;16.90;;;9.73;;
16480;SDS011;44634;54.110;12.138;2023-04-16T08:42:05;20.23;;;10.37;;
16480;SDS011;44634;54.110;12.138;2023-04-16T08:44:40;13.20;;;9.10;;
16480;SDS011;44634;54.110;12.138;2023-04-16T08:47:16;17.50;;;9.20;;
16480;SDS011;44634;54.110;12.138;2023-04-16T08:49:44;20.13;;;9.57;;
16480;SDS011;44634;54.110;12.138;2023-04-16T08:52:14;14.07;;;9.77;;
16480;SDS011;44634;54.110;12.138;2023-04-16T08:54:47;15.70;;;9.03;;
16480;SDS011;44634;54.110;12.138;2023-04-16T08:57:22;12.40;;;9.43;;
16480;SDS011;44634;54.110;12.138;2023-04-16T08:59:53;14.73;;;9.90;;
16480;SDS011;44634;54.110;12.138;2023-04-16T09:02:23;16.50;;;9.40;;
16480;SDS011;44634;54.110;12.138;2023-04-16T09:04:52;11.83;;;9.23;;
16480;SDS011;44634;54.110;12.138;2023-04-16T09:07:22;16.47;;;8.97;;
16480;SDS011;44634;54.110;12.138;2023-04-16T09:09:52;13.73;;;8.83;;
16480;SDS011;44634;54.110;12.138;2023-04-16T09:12:22;16.87;;;9.00;;
16480;SDS011;44634;54.110;12.138;2023-04-16T09:14:50;14.10;;;8.73;;
16480;SDS011;44634;54.110;12.138;2023-04-16T09:17:18;12.90;;;8.90;;
16480;SDS011;44634;54.110;12.138;2023-04-16T09:19:48;11.87;;;8.30;;
16480;SDS011;44634;54.110;12.138;2023-04-16T09:22:15;12.77;;;8.37;;
16480;SDS011;44634;54.110;12.138;2023-04-16T09:24:43;13.73;;;8.50;;
16480;SDS011;44634;54.110;12.138;2023-04-16T09:27:11;10.90;;;8.37;;
16480;SDS011;44634;54.110;12.138;2023-04-16T09:29:39;15.83;;;9.97;;
16480;SDS011;44634;54.110;12.138;2023-04-16T09:32:08;11.43;;;8.43;;
16480;SDS011;44634;54.110;12.138;2023-04-16T09:37:24;10.73;;;8.13;;
16480;SDS011;44634;54.110;12.138;2023-04-16T09:39:55;12.63;;;7.70;;
16480;SDS011;44634;54.110;12.138;2023-04-16T09:42:25;8.50;;;7.20;;
16480;SDS011;44634;54.110;12.138;2023-04-16T09:44:54;8.40;;;6.80;;
16480;SDS011;44634;54.110;12.138;2023-04-16T09:47:37;13.87;;;8.20;;
16480;SDS011;44634;54.110;12.138;2023-04-16T09:50:08;11.07;;;7.77;;
16480;SDS011;44634;54.110;12.138;2023-04-16T09:52:44;11.90;;;7.93;;
16480;SDS011;44634;54.110;12.138;2023-04-16T09:55:14;10.60;;;7.47;;
16480;SDS011;44634;54.110;12.138;2023-04-16T09:57:42;11.60;;;7.80;;
16480;SDS011;44634;54.110;12.138;2023-04-16T10:00:10;12.53;;;7.00;;
16480;SDS011;44634;54.110;12.138;2023-04-16T10:02:38;11.33;;;7.30;;
16480;SDS011;44634;54.110;12.138;2023-04-16T10:05:09;11.03;;;6.57;;
16480;SDS011;44634;54.110;12.138;2023-04-16T10:07:42;8.60;;;6.77;;
16480;SDS011;44634;54.110;12.138;2023-04-16T10:10:09;9.60;;;7.40;;
16480;SDS011;44634;54.110;12.138;2023-04-16T10:12:37;9.80;;;7.47;;
16480;SDS011;44634;54.110;12.138;2023-04-16T10:15:06;12.03;;;7.60;;
16480;SDS011;44634;54.110;12.138;2023-04-16T10:17:34;8.87;;;7.20;;
16480;SDS011;44634;54.110;12.138;2023-04-16T10:20:03;12.67;;;7.57;;
16480;SDS011;44634;54.110;12.138;2023-04-16T10:22:34;10.80;;;8.07;;
16480;SDS011;44634;54.110;12.138;2023-04-16T10:25:03;13.23;;;7.40;;
16480;SDS011;44634;54.110;12.138;2023-04-16T10:27:31;11.50;;;7.77;;
16480;SDS011;44634;54.110;12.138;2023-04-16T10:29:59;9.63;;;7.13;;
16480;SDS011;44634;54.110;12.138;2023-04-16T10:32:28;10.37;;;7.73;;
16480;SDS011;44634;54.110;12.138;2023-04-16T10:34:57;15.90;;;11.13;;
16480;SDS011;44634;54.110;12.138;2023-04-16T10:37:28;13.97;;;8.30;;
16480;SDS011;44634;54.110;12.138;2023-04-16T10:39:58;9.50;;;7.60;;
16480;SDS011;44634;54.110;12.138;2023-04-16T10:42:26;9.73;;;7.37;;
16480;SDS011;44634;54.110;12.138;2023-04-16T10:44:53;9.30;;;7.17;;
16480;SDS011;44634;54.110;12.138;2023-04-16T10:47:25;10.13;;;7.63;;
16480;SDS011;44634;54.110;12.138;2023-04-16T10:49:55;8.47;;;7.43;;
16480;SDS011;44634;54.110;12.138;2023-04-16T10:52:24;9.03;;;7.93;;
16480;SDS011;44634;54.110;12.138;2023-04-16T10:54:55;11.17;;;8.50;;
16480;SDS011;44634;54.110;12.138;2023-04-16T10:57:27;11.23;;;7.70;;
16480;SDS011;44634;54.110;12.138;2023-04-16T10:59:55;9.50;;;7.17;;
16480;SDS011;44634;54.110;12.138;2023-04-16T11:02:27;8.23;;;7.43;;
16480;SDS011;44634;54.110;12.138;2023-04-16T11:04:56;8.67;;;7.83;;
16480;SDS011;44634;54.110;12.138;2023-04-16T11:07:31;9.77;;;7.20;;
16480;SDS011;44634;54.110;12.138;2023-04-16T11:10:02;9.27;;;7.67;;
16480;SDS011;44634;54.110;12.138;2023-04-16T11:12:34;11.03;;;7.10;;
16480;SDS011;44634;54.110;12.138;2023-04-16T11:15:04;16.67;;;12.80;;
16480;SDS011;44634;54.110;12.138;2023-04-16T11:17:35;9.37;;;7.20;;
16480;SDS011;44634;54.110;12.138;2023-04-16T11:20:04;9.13;;;8.30;;
16480;SDS011;44634;54.110;12.138;2023-04-16T11:22:45;9.63;;;7.13;;
16480;SDS011;44634;54.110;12.138;2023-04-16T11:25:19;8.53;;;7.27;;
16480;SDS011;44634;54.110;12.138;2023-04-16T11:27:47;7.70;;;6.90;;
16480;SDS011;44634;54.110;12.138;2023-04-16T11:30:15;7.37;;;6.67;;
16480;SDS011;44634;54.110;12.138;2023-04-16T11:32:44;10.17;;;7.00;;
16480;SDS011;44634;54.110;12.138;2023-04-16T11:35:12;8.50;;;7.17;;
16480;SDS011;44634;54.110;12.138;2023-04-16T11:37:41;7.77;;;6.97;;
16480;SDS011;44634;54.110;12.138;2023-04-16T11:40:09;8.40;;;6.67;;
16480;SDS011;44634;54.110;12.138;2023-04-16T11:42:40;8.50;;;7.70;;
16480;SDS011;44634;54.110;12.138;2023-04-16T11:45:10;8.83;;;6.90;;
16480;SDS011;44634;54.110;12.138;2023-04-16T11:47:41;8.43;;;7.13;;
16480;SDS011;44634;54.110;12.138;2023-04-16T11:50:20;7.70;;;7.00;;
16480;SDS011;44634;54.110;12.138;2023-04-16T11:52:50;8.63;;;7.73;;
16480;SDS011;44634;54.110;12.138;2023-04-16T11:55:18;8.73;;;6.70;;
16480;SDS011;44634;54.110;12.138;2023-04-16T11:57:48;8.53;;;7.17;;
16480;SDS011;44634;54.110;12.138;2023-04-16T12:00:18;9.13;;;7.37;;
16480;SDS011;44634;54.110;12.138;2023-04-16T12:02:50;9.23;;;7.30;;
16480;SDS011;44634;54.110;12.138;2023-04-16T12:05:26;20.43;;;13.97;;
16480;SDS011;44634;54.110;12.138;2023-04-16T12:07:56;7.87;;;7.07;;
16480;SDS011;44634;54.110;12.138;2023-04-16T12:10:24;9.03;;;7.07;;
16480;SDS011;44634;54.110;12.138;2023-04-16T12:12:54;8.67;;;7.87;;
16480;SDS011;44634;54.110;12.138;2023-04-16T12:15:42;9.83;;;7.57;;
16480;SDS011;44634;54.110;12.138;2023-04-16T12:18:10;11.03;;;7.40;;
16480;SDS011;44634;54.110;12.138;2023-04-16T12:20:38;8.63;;;7.53;;
16480;SDS011;44634;54.110;12.138;2023-04-16T12:23:08;9.47;;;6.90;;
16480;SDS011;44634;54.110;12.138;2023-04-16T12:25:36;10.80;;;8.37;;
16480;SDS011;44634;54.110;12.138;2023-04-16T12:28:06;7.70;;;6.80;;
16480;SDS011;44634;54.110;12.138;2023-04-16T12:30:47;7.57;;;6.80;;
16480;SDS011;44634;54.110;12.138;2023-04-16T12:33:16;7.90;;;7.20;;
16480;SDS011;44634;54.110;12.138;2023-04-16T12:35:46;8.07;;;7.27;;
16480;SDS011;44634;54.110;12.138;2023-04-16T12:38:14;9.70;;;6.97;;
16480;SDS011;44634;54.110;12.138;2023-04-16T12:40:42;7.97;;;7.23;;
16480;SDS011;44634;54.110;12.138;2023-04-16T12:43:11;9.27;;;6.67;;
16480;SDS011;44634;54.110;12.138;2023-04-16T12:45:39;9.60;;;6.70;;
16480;SDS011;44634;54.110;12.138;2023-04-16T12:48:07;8.60;;;7.43;;
16480;SDS011;44634;54.110;12.138;2023-04-16T12:50:35;12.53;;;6.97;;
16480;SDS011;44634;54.110;12.138;2023-04-16T12:53:04;7.07;;;6.37;;
16480;SDS011;44634;54.110;12.138;2023-04-16T12:55:32;7.70;;;6.83;;
16480;SDS011;44634;54.110;12.138;2023-04-16T12:58:00;8.13;;;6.87;;
16480;SDS011;44634;54.110;12.138;2023-04-16T13:00:29;8.83;;;7.30;;
16480;SDS011;44634;54.110;12.138;2023-04-16T13:02:58;7.67;;;6.83;;
16480;SDS011;44634;54.110;12.138;2023-04-16T13:05:26;8.13;;;7.33;;
16480;SDS011;44634;54.110;12.138;2023-04-16T13:07:53;8.60;;;6.90;;
16480;SDS011;44634;54.110;12.138;2023-04-16T13:10:21;8.27;;;7.47;;
16480;SDS011;44634;54.110;12.138;2023-04-16T13:12:49;7.00;;;6.33;;
16480;SDS011;44634;54.110;12.138;2023-04-16T13:15:17;8.00;;;7.20;;
16480;SDS011;44634;54.110;12.138;2023-04-16T13:17:46;7.57;;;6.80;;
16480;SDS011;44634;54.110;12.138;2023-04-16T13:20:14;7.73;;;6.90;;
16480;SDS011;44634;54.110;12.138;2023-04-16T13:22:42;10.27;;;7.20;;
16480;SDS011;44634;54.110;12.138;2023-04-16T13:25:10;8.50;;;7.20;;
16480;SDS011;44634;54.110;12.138;2023-04-16T13:27:38;8.10;;;7.30;;
16480;SDS011;44634;54.110;12.138;2023-04-16T13:30:06;9.27;;;7.47;;
16480;SDS011;44634;54.110;12.138;2023-04-16T13:32:34;23.67;;;14.63;;
16480;SDS011;44634;54.110;12.138;2023-04-16T13:35:04;12.70;;;8.87;;
16480;SDS011;44634;54.110;12.138;2023-04-16T13:37:33;7.97;;;7.17;;
16480;SDS011;44634;54.110;12.138;2023-04-16T13:40:01;7.80;;;7.10;;
16480;SDS011;44634;54.110;12.138;2023-04-16T13:42:28;10.03;;;7.13;;
16480;SDS011;44634;54.110;12.138;2023-04-16T13:44:57;9.60;;;7.43;;
16480;SDS011;44634;54.110;12.138;2023-04-16T13:47:25;7.60;;;6.90;;
16480;SDS011;44634;54.110;12.138;2023-04-16T13:49:53;7.07;;;6.40;;
16480;SDS011;44634;54.110;12.138;2023-04-16T13:52:22;6.27;;;5.77;;
16480;SDS011;44634;54.110;12.138;2023-04-16T13:54:50;5.97;;;5.47;;
16480;SDS011;44634;54.110;12.138;2023-04-16T13:57:17;6.30;;;5.70;;
16480;SDS011;44634;54.110;12.138;2023-04-16T13:59:46;6.57;;;5.97;;
16480;SDS011;44634;54.110;12.138;2023-04-16T14:02:13;6.57;;;5.93;;
16480;SDS011;44634;54.110;12.138;2023-04-16T14:04:41;6.40;;;5.80;;
16480;SDS011;44634;54.110;12.138;2023-04-16T14:07:09;6.37;;;5.83;;
16480;SDS011;44634;54.110;12.138;2023-04-16T14:09:39;6.70;;;6.00;;
16480;SDS011;44634;54.110;12.138;2023-04-16T14:12:06;6.47;;;5.87;;
16480;SDS011;44634;54.110;12.138;2023-04-16T14:14:34;6.43;;;5.93;;
16480;SDS011;44634;54.110;12.138;2023-04-16T14:17:02;6.60;;;5.97;;
16480;SDS011;44634;54.110;12.138;2023-04-16T14:19:30;7.53;;;6.20;;
16480;SDS011;44634;54.110;12.138;2023-04-16T14:21:57;6.70;;;6.10;;
16480;SDS011;44634;54.110;12.138;2023-04-16T14:24:25;7.27;;;6.57;;
16480;SDS011;44634;54.110;12.138;2023-04-16T14:26:54;6.67;;;6.00;;